Time;durP1;ratioP1;P1;durP2;ratioP2;P2;SDS_P1;SDS_P2;PMS_P1;PMS_P2;Temp;Humidity;BMP_temperature;BMP_pressure;BME280_temperature;BME280_humidity;BME280_pressure;Samples;Min_cycle;Max_cycle;Signal;HPM_P1;HPM_P2
2022/10/09 00:02:50;;;;;;;11.70;7.88;;;25.20;68.70;;;;;;7673550;22;80255;-59
2022/10/09 00:05:50;;;;;;;10.93;8.07;;;25.20;68.50;;;;;;7678452;22;81091;-58
2022/10/09 00:08:51;;;;;;;9.93;8.07;;;25.20;68.50;;;;;;7680368;22;80429;-60
2022/10/09 00:11:51;;;;;;;9.05;7.30;;;25.20;68.70;;;;;;7679778;22;81922;-59
2022/10/09 00:14:52;;;;;;;9.90;7.55;;;25.10;68.60;;;;;;7679520;22;81599;-60
2022/10/09 00:17:52;;;;;;;9.63;7.93;;;25.20;68.70;;;;;;7677790;22;80298;-60
2022/10/09 00:20:53;;;;;;;11.02;7.82;;;25.10;68.70;;;;;;7679740;22;81805;-59
2022/10/09 00:23:53;;;;;;;10.02;7.20;;;25.20;68.70;;;;;;7680544;22;80249;-60
2022/10/09 00:26:54;;;;;;;11.50;8.32;;;25.20;68.70;;;;;;7676679;22;81401;-60
2022/10/09 00:29:54;;;;;;;10.05;7.55;;;25.20;68.60;;;;;;7676587;22;80454;-60
2022/10/09 00:32:55;;;;;;;13.43;9.18;;;25.20;68.60;;;;;;7680171;22;80444;-60
2022/10/09 00:35:55;;;;;;;10.93;7.55;;;25.20;68.40;;;;;;7680980;22;80243;-59
2022/10/09 00:38:56;;;;;;;11.25;8.15;;;25.20;68.30;;;;;;7675063;22;80667;-60
2022/10/09 00:41:56;;;;;;;11.00;8.20;;;25.20;68.20;;;;;;7678386;22;80341;-60
2022/10/09 00:44:58;;;;;;;11.02;8.05;;;25.20;68.40;;;;;;7680732;22;82288;-60
2022/10/09 00:47:59;;;;;;;10.07;8.05;;;25.20;68.10;;;;;;7679333;22;81314;-60
2022/10/09 00:50:59;;;;;;;11.82;8.20;;;25.20;68.20;;;;;;7679550;22;80419;-59
2022/10/09 00:54:00;;;;;;;9.85;8.13;;;25.10;68.10;;;;;;7677325;22;80289;-60
2022/10/09 00:57:00;;;;;;;11.57;7.80;;;25.10;67.80;;;;;;7681734;22;80372;-60
2022/10/09 01:00:01;;;;;;;9.70;7.82;;;25.10;68.00;;;;;;7677295;22;81191;-60
2022/10/09 01:03:01;;;;;;;14.90;7.78;;;25.10;68.10;;;;;;7637123;22;80995;-62
2022/10/09 01:06:02;;;;;;;10.35;6.90;;;25.20;67.90;;;;;;7679718;22;80757;-62
2022/10/09 01:09:02;;;;;;;10.25;7.13;;;25.10;68.00;;;;;;7676094;22;80384;-60
2022/10/09 01:12:03;;;;;;;8.93;6.57;;;25.10;68.00;;;;;;7674245;22;81109;-59
2022/10/09 01:15:03;;;;;;;10.82;7.38;;;25.10;68.00;;;;;;7675759;22;80609;-59
2022/10/09 01:18:04;;;;;;;10.95;7.25;;;25.10;67.90;;;;;;7677288;22;81997;-59
2022/10/09 01:21:04;;;;;;;7.57;6.03;;;25.10;67.70;;;;;;7679279;22;81195;-58
2022/10/09 01:24:05;;;;;;;9.10;6.60;;;25.10;67.80;;;;;;7678382;22;81920;-59
2022/10/09 01:27:06;;;;;;;8.45;6.38;;;25.10;67.60;;;;;;7675240;22;80108;-60
2022/10/09 01:30:06;;;;;;;10.52;5.95;;;25.10;67.70;;;;;;7679120;22;81010;-60
2022/10/09 01:33:07;;;;;;;7.45;5.68;;;25.10;67.60;;;;;;7679097;22;80772;-60
2022/10/09 01:36:07;;;;;;;8.77;5.63;;;25.10;67.80;;;;;;7682184;22;80436;-60
2022/10/09 01:39:08;;;;;;;8.70;5.75;;;25.10;67.70;;;;;;7679028;22;80513;-60
2022/10/09 01:42:08;;;;;;;6.97;5.20;;;25.10;67.50;;;;;;7679461;22;80730;-60
2022/10/09 01:45:09;;;;;;;7.32;5.03;;;25.10;67.40;;;;;;7679928;22;80337;-60
2022/10/09 01:48:09;;;;;;;7.47;4.93;;;25.10;67.40;;;;;;7679758;22;80152;-60
2022/10/09 01:51:10;;;;;;;7.13;4.80;;;25.10;67.50;;;;;;7679258;22;81674;-60
2022/10/09 01:54:10;;;;;;;5.40;4.30;;;25.20;67.40;;;;;;7679033;22;81397;-60
2022/10/09 01:57:11;;;;;;;8.82;5.32;;;25.10;67.10;;;;;;7677037;22;81194;-61
2022/10/09 02:00:11;;;;;;;6.97;4.80;;;25.10;67.20;;;;;;7681882;22;80433;-60
2022/10/09 02:03:12;;;;;;;6.20;4.28;;;25.20;67.20;;;;;;7678778;22;80704;-60
2022/10/09 02:06:12;;;;;;;5.03;4.10;;;25.10;67.00;;;;;;7678726;22;80764;-60
2022/10/09 02:09:13;;;;;;;5.35;4.07;;;25.10;66.80;;;;;;7679666;22;80434;-60
2022/10/09 02:12:14;;;;;;;5.15;4.00;;;25.10;66.70;;;;;;7681512;22;80333;-62
2022/10/09 02:15:15;;;;;;;5.53;4.18;;;25.10;66.70;;;;;;7678064;22;80549;-61
2022/10/09 02:18:15;;;;;;;4.88;3.70;;;25.10;66.60;;;;;;7678499;22;80497;-62
2022/10/09 02:21:16;;;;;;;4.95;4.10;;;25.10;66.80;;;;;;7678602;22;80851;-62
2022/10/09 02:24:16;;;;;;;6.63;4.00;;;25.10;66.60;;;;;;7677401;22;81446;-63
2022/10/09 02:27:17;;;;;;;4.57;3.42;;;25.10;66.60;;;;;;7680439;22;80581;-62
2022/10/09 02:30:17;;;;;;;5.70;3.00;;;25.10;66.60;;;;;;7678443;22;81125;-62
2022/10/09 02:33:18;;;;;;;5.53;3.17;;;25.10;66.60;;;;;;7673058;22;81612;-61
2022/10/09 02:36:18;;;;;;;5.63;3.67;;;25.10;66.60;;;;;;7679176;22;80038;-60
2022/10/09 02:39:19;;;;;;;4.68;3.08;;;25.10;66.70;;;;;;7678802;22;80667;-64
2022/10/09 02:42:20;;;;;;;4.45;2.95;;;25.10;66.70;;;;;;7680240;22;80417;-61
2022/10/09 02:45:21;;;;;;;4.28;3.30;;;25.10;66.70;;;;;;7681132;22;80374;-62
2022/10/09 02:48:21;;;;;;;5.38;3.30;;;25.10;66.80;;;;;;7678915;22;81101;-64
2022/10/09 02:51:22;;;;;;;5.25;3.35;;;25.10;66.80;;;;;;7679032;22;80532;-63
2022/10/09 02:54:22;;;;;;;5.38;3.20;;;25.10;66.80;;;;;;7677958;22;80481;-63
2022/10/09 02:57:23;;;;;;;4.35;2.90;;;25.10;66.70;;;;;;7682738;22;80888;-63
2022/10/09 03:00:23;;;;;;;5.63;2.92;;;25.10;66.70;;;;;;7681575;22;81638;-63
2022/10/09 03:03:24;;;;;;;6.75;3.30;;;25.10;66.80;;;;;;7676238;22;80768;-63
2022/10/09 03:06:24;;;;;;;6.90;2.85;;;25.10;66.60;;;;;;7677906;22;81784;-65
2022/10/09 03:09:25;;;;;;;4.00;2.60;;;25.10;66.50;;;;;;7681272;22;80528;-49
2022/10/09 03:12:25;;;;;;;2.88;2.35;;;25.00;66.50;;;;;;7678763;22;79929;-46
2022/10/09 03:15:26;;;;;;;5.30;2.85;;;25.00;66.50;;;;;;7677825;22;80170;-49
2022/10/09 03:18:27;;;;;;;5.38;2.95;;;25.10;66.60;;;;;;7677213;22;80948;-47
2022/10/09 03:21:27;;;;;;;3.92;2.78;;;25.10;66.70;;;;;;7680546;22;80753;-46
2022/10/09 03:24:28;;;;;;;4.00;2.83;;;25.10;66.70;;;;;;7679303;22;80360;-47
2022/10/09 03:27:29;;;;;;;5.60;2.90;;;25.10;66.60;;;;;;7678048;22;80029;-51
2022/10/09 03:30:30;;;;;;;3.50;2.70;;;25.10;66.60;;;;;;7678999;22;80346;-49
2022/10/09 03:33:30;;;;;;;4.95;2.78;;;25.10;66.50;;;;;;7651790;22;80269;-48
2022/10/09 03:36:31;;;;;;;4.25;2.50;;;25.10;66.60;;;;;;7679600;22;80749;-49
2022/10/09 03:39:31;;;;;;;3.95;2.67;;;25.00;66.40;;;;;;7677885;22;80293;-46
2022/10/09 03:42:32;;;;;;;5.28;2.80;;;25.10;66.60;;;;;;7677330;22;80423;-52
2022/10/09 03:45:33;;;;;;;7.75;2.95;;;25.00;66.50;;;;;;7680643;22;80240;-44
2022/10/09 03:48:33;;;;;;;3.78;2.30;;;25.10;66.60;;;;;;7680314;22;81152;-45
2022/10/09 03:51:34;;;;;;;4.88;2.97;;;25.00;66.50;;;;;;7678316;22;81709;-45
2022/10/09 03:54:34;;;;;;;2.40;2.20;;;25.00;66.50;;;;;;7679430;22;80396;-46
2022/10/09 03:57:35;;;;;;;3.10;2.30;;;25.00;66.30;;;;;;7677168;22;80172;-46
2022/10/09 04:00:35;;;;;;;4.43;2.53;;;25.00;66.30;;;;;;7678056;22;80426;-45
2022/10/09 04:03:36;;;;;;;4.80;2.50;;;25.10;66.20;;;;;;7679257;22;80846;-59
2022/10/09 04:06:37;;;;;;;5.93;2.83;;;25.00;66.00;;;;;;7678898;22;81031;-59
2022/10/09 04:09:37;;;;;;;3.45;2.50;;;25.00;66.20;;;;;;7677810;22;80199;-60
2022/10/09 04:12:38;;;;;;;4.20;2.50;;;25.00;66.20;;;;;;7679089;22;80466;-59
2022/10/09 04:15:38;;;;;;;3.72;1.98;;;25.00;66.00;;;;;;7676977;22;80110;-53
2022/10/09 04:18:39;;;;;;;4.32;2.33;;;25.00;66.10;;;;;;7680627;22;81238;-57
2022/10/09 04:21:39;;;;;;;8.35;2.05;;;25.00;66.10;;;;;;7676573;22;80062;-47
2022/10/09 04:24:40;;;;;;;3.63;2.10;;;25.00;66.10;;;;;;7677530;22;80315;-47
2022/10/09 04:27:40;;;;;;;3.40;2.10;;;25.00;66.00;;;;;;7678719;22;80081;-48
2022/10/09 04:30:41;;;;;;;3.67;2.30;;;25.00;66.00;;;;;;7677726;22;80425;-48
2022/10/09 04:33:42;;;;;;;4.38;2.38;;;25.00;66.00;;;;;;7676785;22;80445;-49
2022/10/09 04:36:42;;;;;;;7.55;2.67;;;25.00;66.00;;;;;;7676959;22;81547;-49
2022/10/09 04:39:43;;;;;;;3.90;2.33;;;25.10;66.00;;;;;;7672851;22;80436;-51
2022/10/09 04:42:43;;;;;;;7.05;2.22;;;25.10;66.30;;;;;;7672304;22;80861;-50
2022/10/09 04:45:44;;;;;;;3.80;2.08;;;25.10;65.90;;;;;;7671448;22;80205;-51
2022/10/09 04:48:44;;;;;;;5.65;2.30;;;25.10;66.00;;;;;;7670099;22;81179;-51
2022/10/09 04:51:45;;;;;;;4.25;2.42;;;25.10;65.80;;;;;;7677670;22;80812;-48
2022/10/09 04:54:45;;;;;;;2.90;1.98;;;25.10;65.70;;;;;;7660793;22;80641;-52
2022/10/09 04:57:46;;;;;;;3.42;2.25;;;25.10;65.70;;;;;;7665892;22;81212;-46
2022/10/09 05:00:47;;;;;;;3.65;2.13;;;25.10;65.50;;;;;;7669957;22;80771;-46
2022/10/09 05:03:47;;;;;;;5.18;2.42;;;25.10;65.50;;;;;;7671693;22;81259;-48
2022/10/09 05:06:48;;;;;;;5.32;2.63;;;25.10;65.50;;;;;;7677591;22;80750;-46
2022/10/09 05:09:48;;;;;;;4.78;2.50;;;25.10;65.60;;;;;;7670853;22;81432;-49
2022/10/09 05:12:49;;;;;;;3.15;2.10;;;25.10;65.40;;;;;;7673869;22;80444;-48
2022/10/09 05:15:50;;;;;;;4.05;2.40;;;25.10;65.50;;;;;;7677248;22;80338;-48
2022/10/09 05:18:50;;;;;;;4.25;2.28;;;25.10;65.60;;;;;;7678858;22;81827;-49
2022/10/09 05:21:51;;;;;;;3.70;2.30;;;25.10;66.00;;;;;;7675687;22;81344;-48
2022/10/09 05:24:51;;;;;;;4.15;2.67;;;25.10;66.30;;;;;;7676328;22;81381;-50
2022/10/09 05:27:52;;;;;;;5.95;2.80;;;25.10;66.40;;;;;;7678326;22;81575;-49
2022/10/09 05:30:52;;;;;;;5.45;2.15;;;25.10;66.60;;;;;;7679378;22;80277;-50
2022/10/09 05:33:53;;;;;;;8.43;2.45;;;25.10;66.70;;;;;;7679800;22;81361;-48
2022/10/09 05:36:53;;;;;;;9.23;2.88;;;25.10;66.90;;;;;;7672770;22;80358;-47
2022/10/09 05:39:54;;;;;;;9.63;2.60;;;25.10;66.60;;;;;;7675853;22;81106;-49
2022/10/09 05:42:55;;;;;;;4.43;2.70;;;25.20;66.50;;;;;;7674487;22;80662;-48
2022/10/09 05:45:55;;;;;;;10.27;3.35;;;25.20;66.60;;;;;;7674637;22;80697;-48
2022/10/09 05:48:56;;;;;;;5.18;2.78;;;25.20;66.70;;;;;;7671903;22;81228;-55
2022/10/09 05:51:56;;;;;;;7.60;2.58;;;25.20;66.50;;;;;;7674486;22;80241;-49
2022/10/09 05:54:57;;;;;;;12.77;2.85;;;25.20;66.20;;;;;;7675011;22;80782;-49
2022/10/09 05:57:57;;;;;;;6.40;2.35;;;25.20;66.30;;;;;;7674602;22;80517;-52
2022/10/09 06:00:58;;;;;;;14.23;2.70;;;25.20;66.60;;;;;;7665209;22;80430;-47
2022/10/09 06:03:58;;;;;;;8.93;2.53;;;25.20;66.80;;;;;;7657811;22;80658;-48
2022/10/09 06:06:59;;;;;;;5.10;2.53;;;25.30;66.60;;;;;;7662425;22;81392;-51
2022/10/09 06:09:59;;;;;;;10.88;4.55;;;25.30;66.80;;;;;;7668438;22;80858;-51
2022/10/09 06:13:00;;;;;;;10.70;4.35;;;25.30;66.90;;;;;;7664232;22;80635;-48
2022/10/09 06:16:00;;;;;;;8.10;4.43;;;25.30;66.90;;;;;;7672910;22;81048;-47
2022/10/09 06:19:01;;;;;;;10.93;3.80;;;25.40;67.00;;;;;;7673142;22;81918;-50
2022/10/09 06:22:01;;;;;;;7.53;4.88;;;25.40;66.90;;;;;;7679295;22;87653;-53
2022/10/09 06:25:02;;;;;;;12.82;5.55;;;25.40;67.20;;;;;;7679595;22;80752;-51
2022/10/09 06:28:02;;;;;;;15.40;5.10;;;25.40;67.50;;;;;;7678467;22;80983;-54
2022/10/09 06:31:03;;;;;;;16.83;6.18;;;25.50;67.40;;;;;;7680781;22;80350;-59
2022/10/09 06:34:03;;;;;;;8.77;4.78;;;25.50;66.40;;;;;;7679328;22;79944;-59
2022/10/09 06:37:04;;;;;;;10.90;4.80;;;25.50;66.90;;;;;;7681003;22;80715;-60
2022/10/09 06:40:04;;;;;;;9.27;4.63;;;25.50;64.70;;;;;;7677522;22;80037;-59
2022/10/09 06:43:05;;;;;;;8.82;4.65;;;25.50;65.10;;;;;;7679242;22;80847;-59
2022/10/09 06:46:06;;;;;;;14.52;4.72;;;25.50;64.50;;;;;;7678996;22;80289;-59
2022/10/09 06:49:06;;;;;;;9.00;3.70;;;25.50;64.40;;;;;;7671445;22;87814;-51
2022/10/09 06:52:07;;;;;;;6.05;3.20;;;25.50;63.80;;;;;;7657368;22;80692;-52
2022/10/09 06:55:07;;;;;;;9.43;4.35;;;25.60;64.00;;;;;;7661143;22;80781;-51
2022/10/09 06:58:08;;;;;;;5.10;2.80;;;25.60;63.80;;;;;;7659030;22;80459;-50
2022/10/09 07:01:08;;;;;;;6.85;2.80;;;25.70;63.40;;;;;;7664985;22;81291;-49
2022/10/09 07:04:09;;;;;;;6.63;2.90;;;25.60;61.00;;;;;;7674196;22;80698;-47
2022/10/09 07:07:09;;;;;;;6.95;2.67;;;25.50;61.70;;;;;;7665590;22;80124;-50
2022/10/09 07:10:10;;;;;;;7.45;2.67;;;25.60;61.70;;;;;;7671194;22;80744;-52
2022/10/09 07:13:10;;;;;;;12.07;2.63;;;25.60;60.90;;;;;;7678217;22;80263;-56
2022/10/09 07:16:11;;;;;;;5.85;2.30;;;25.50;59.70;;;;;;7678115;22;81193;-58
2022/10/09 07:19:12;;;;;;;5.30;2.88;;;25.40;59.30;;;;;;7679777;22;80273;-49
2022/10/09 07:22:12;;;;;;;4.95;2.22;;;25.30;58.90;;;;;;7678017;22;81422;-49
2022/10/09 07:25:13;;;;;;;9.63;3.58;;;25.30;58.80;;;;;;7679553;22;80789;-52
2022/10/09 07:28:13;;;;;;;5.32;3.45;;;25.10;58.30;;;;;;7676537;22;80240;-59
2022/10/09 07:31:14;;;;;;;7.75;3.47;;;25.10;58.60;;;;;;7677069;22;80209;-58
2022/10/09 07:34:14;;;;;;;9.65;3.85;;;24.90;58.60;;;;;;7677785;22;80379;-61
2022/10/09 07:37:15;;;;;;;8.50;3.75;;;24.90;58.70;;;;;;7677516;22;80586;-61
2022/10/09 07:40:15;;;;;;;7.75;4.10;;;24.90;58.70;;;;;;7676445;22;82295;-49
2022/10/09 07:43:16;;;;;;;8.27;3.92;;;24.90;59.10;;;;;;7675737;22;81032;-48
2022/10/09 07:46:16;;;;;;;7.95;4.05;;;24.90;59.40;;;;;;7676635;22;86782;-50
2022/10/09 07:49:17;;;;;;;5.43;3.80;;;24.90;59.20;;;;;;7644416;22;80871;-49
2022/10/09 07:52:17;;;;;;;8.27;4.25;;;24.90;59.50;;;;;;7673379;22;80682;-59
2022/10/09 07:55:18;;;;;;;9.20;4.47;;;24.90;59.30;;;;;;7671474;22;81243;-49
2022/10/09 07:58:18;;;;;;;7.25;4.35;;;24.90;58.40;;;;;;7645015;22;81771;-48
2022/10/09 08:01:19;;;;;;;7.57;4.28;;;24.90;58.80;;;;;;7670278;22;82114;-52
2022/10/09 08:04:19;;;;;;;10.25;4.57;;;25.00;58.90;;;;;;7672252;22;80421;-46
2022/10/09 08:07:20;;;;;;;8.98;4.70;;;25.00;59.50;;;;;;7672549;22;80415;-51
2022/10/09 08:10:20;;;;;;;9.23;4.60;;;25.10;59.60;;;;;;7673205;22;80071;-49
2022/10/09 08:13:21;;;;;;;8.48;4.25;;;25.10;59.00;;;;;;7663658;22;81507;-51
2022/10/09 08:16:21;;;;;;;34.65;18.85;;;25.00;58.90;;;;;;7674243;22;80862;-51
2022/10/09 08:19:22;;;;;;;112.32;56.10;;;25.10;59.40;;;;;;7669957;22;83296;-46
2022/10/09 08:22:23;;;;;;;112.95;53.33;;;25.10;58.30;;;;;;7669595;22;83365;-46
2022/10/09 08:25:23;;;;;;;141.73;67.95;;;25.10;59.20;;;;;;7672242;22;83795;-50
2022/10/09 08:28:24;;;;;;;94.55;46.10;;;25.10;59.20;;;;;;7667587;22;84037;-52
2022/10/09 08:31:24;;;;;;;65.75;32.15;;;25.10;47.20;;;;;;7670791;22;83734;-48
2022/10/09 08:34:25;;;;;;;46.63;21.58;;;25.10;62.80;;;;;;7676748;22;83503;-53
2022/10/09 08:37:25;;;;;;;27.00;13.57;;;25.10;62.40;;;;;;7675723;22;83295;-50
2022/10/09 08:40:26;;;;;;;21.30;11.10;;;25.10;62.00;;;;;;7675011;22;82995;-58
2022/10/09 08:43:26;;;;;;;14.90;7.88;;;25.10;60.70;;;;;;7674274;22;82957;-60
2022/10/09 08:46:27;;;;;;;17.83;8.00;;;24.70;60.60;;;;;;7675987;22;82923;-59
2022/10/09 08:49:27;;;;;;;10.88;5.93;;;24.70;60.90;;;;;;7678360;22;80368;-59
2022/10/09 08:52:28;;;;;;;8.20;5.55;;;24.60;60.10;;;;;;7674866;22;80460;-59
2022/10/09 08:55:29;;;;;;;14.70;5.60;;;24.70;60.90;;;;;;7664339;22;81442;-59
2022/10/09 08:58:29;;;;;;;10.88;4.53;;;24.90;61.20;;;;;;7666626;22;80605;-58
2022/10/09 09:01:30;;;;;;;10.95;5.53;;;25.00;61.10;;;;;;7670266;22;80324;-58
2022/10/09 09:04:30;;;;;;;19.23;5.00;;;24.90;60.20;;;;;;7644710;22;82338;-59
2022/10/09 09:07:32;;;;;;;7.47;3.95;;;25.00;60.20;;;;;;7675455;22;80300;-60
2022/10/09 09:10:33;;;;;;;8.25;4.30;;;25.10;59.70;;;;;;7669545;22;81978;-62
2022/10/09 09:13:34;;;;;;;8.40;3.90;;;25.10;59.50;;;;;;7676068;22;80716;-57
2022/10/09 09:16:34;;;;;;;9.07;3.97;;;25.20;59.70;;;;;;7673789;22;80861;-58
2022/10/09 09:19:35;;;;;;;10.23;4.05;;;25.20;59.60;;;;;;7645669;22;81366;-57
2022/10/09 09:22:35;;;;;;;7.10;3.80;;;25.30;60.00;;;;;;7676560;22;80143;-56
2022/10/09 09:25:36;;;;;;;10.02;4.00;;;25.30;60.20;;;;;;7678367;22;80363;-57
2022/10/09 09:28:36;;;;;;;5.05;3.33;;;25.30;59.40;;;;;;7680408;22;81536;-56
2022/10/09 09:31:37;;;;;;;9.20;4.43;;;25.50;59.20;;;;;;7675590;22;80510;-56
2022/10/09 09:34:37;;;;;;;9.02;4.25;;;25.50;60.00;;;;;;7667702;22;81630;-56
2022/10/09 09:37:38;;;;;;;8.57;3.95;;;25.50;60.40;;;;;;7673115;22;80147;-52
2022/10/09 09:40:38;;;;;;;8.20;3.72;;;25.50;59.60;;;;;;7676757;22;80074;-56
2022/10/09 09:43:39;;;;;;;6.53;3.65;;;25.60;59.10;;;;;;7666838;22;80952;-54
2022/10/09 09:46:39;;;;;;;6.22;3.88;;;25.60;58.70;;;;;;7662174;22;80454;-54
2022/10/09 09:49:40;;;;;;;13.98;3.53;;;25.70;59.30;;;;;;7671241;22;81666;-56
2022/10/09 09:52:41;;;;;;;7.45;3.38;;;25.90;59.90;;;;;;7665183;22;82777;-55
2022/10/09 09:55:41;;;;;;;6.82;3.63;;;25.90;59.50;;;;;;7674192;22;80302;-55
2022/10/09 09:58:42;;;;;;;4.80;3.38;;;25.90;59.30;;;;;;7680188;22;81775;-52
2022/10/09 10:01:42;;;;;;;10.30;3.30;;;25.60;58.40;;;;;;7678186;22;80268;-55
2022/10/09 10:04:43;;;;;;;6.32;2.95;;;25.60;58.70;;;;;;7674878;22;81494;-56
2022/10/09 10:07:43;;;;;;;4.63;2.83;;;25.70;57.70;;;;;;7680894;22;80272;-51
2022/10/09 10:10:44;;;;;;;8.35;3.20;;;25.80;57.30;;;;;;7679846;22;80311;-51
2022/10/09 10:13:44;;;;;;;6.03;3.33;;;25.80;57.00;;;;;;7664416;22;81335;-52
2022/10/09 10:16:45;;;;;;;5.32;2.70;;;25.80;57.50;;;;;;7663429;22;80862;-55
2022/10/09 10:19:45;;;;;;;5.85;3.38;;;25.90;57.40;;;;;;7679378;22;80441;-57
2022/10/09 10:22:46;;;;;;;8.95;3.22;;;26.00;57.40;;;;;;7643595;22;81498;-54
2022/10/09 10:25:46;;;;;;;4.63;2.90;;;26.00;57.60;;;;;;7670954;22;80904;-56
2022/10/09 10:28:47;;;;;;;4.18;3.20;;;26.00;57.60;;;;;;7675843;22;80589;-55
2022/10/09 10:31:47;;;;;;;7.55;3.00;;;26.00;58.10;;;;;;7675534;22;80173;-53
2022/10/09 10:34:48;;;;;;;7.47;3.10;;;25.90;58.00;;;;;;7673342;22;80779;-60
2022/10/09 10:37:48;;;;;;;8.43;3.20;;;26.10;58.20;;;;;;7678712;22;80897;-53
2022/10/09 10:40:49;;;;;;;7.78;3.03;;;26.20;57.90;;;;;;7654710;22;81928;-54
2022/10/09 10:43:50;;;;;;;8.75;3.42;;;26.30;58.70;;;;;;7678214;22;80669;-51
2022/10/09 10:46:51;;;;;;;5.07;3.00;;;26.40;59.50;;;;;;7681489;22;80129;-60
2022/10/09 10:49:52;;;;;;;4.82;2.80;;;26.50;59.40;;;;;;7655361;22;80236;-61
2022/10/09 10:52:52;;;;;;;4.90;2.85;;;26.60;59.60;;;;;;7679261;22;80496;-61
2022/10/09 10:55:52;;;;;;;8.85;2.78;;;26.60;58.20;;;;;;7676593;22;80749;-59
2022/10/09 10:58:53;;;;;;;6.40;2.70;;;26.70;58.30;;;;;;7679784;22;80718;-59
2022/10/09 11:01:53;;;;;;;6.30;2.45;;;26.70;58.90;;;;;;7673363;22;81023;-59
2022/10/09 11:04:54;;;;;;;7.00;2.95;;;26.70;59.10;;;;;;7673054;22;81472;-59
2022/10/09 11:07:54;;;;;;;4.85;2.55;;;26.50;59.90;;;;;;7677828;22;81269;-59
2022/10/09 11:10:55;;;;;;;7.38;2.53;;;26.50;60.00;;;;;;7680367;22;80842;-60
2022/10/09 11:13:56;;;;;;;6.20;2.38;;;26.60;58.20;;;;;;7673845;22;81847;-60
2022/10/09 11:16:56;;;;;;;7.00;2.88;;;26.60;58.80;;;;;;7678281;22;80703;-60
2022/10/09 11:19:57;;;;;;;3.85;2.13;;;26.60;58.20;;;;;;7681321;22;80895;-60
2022/10/09 11:22:57;;;;;;;5.68;2.80;;;26.70;57.60;;;;;;7680139;22;81291;-54
2022/10/09 11:25:58;;;;;;;8.00;3.00;;;26.60;56.70;;;;;;7650727;22;81524;-60
2022/10/09 11:28:59;;;;;;;6.20;2.95;;;26.70;57.20;;;;;;7665059;22;80302;-52
2022/10/09 11:31:59;;;;;;;5.90;2.95;;;26.70;56.10;;;;;;7661673;22;80635;-55
2022/10/09 11:35:00;;;;;;;6.90;2.67;;;26.70;56.10;;;;;;7674611;22;80418;-53
2022/10/09 11:38:00;;;;;;;3.40;2.17;;;26.80;56.00;;;;;;7673445;22;81264;-53
2022/10/09 11:41:01;;;;;;;4.30;2.20;;;26.70;53.90;;;;;;7675322;22;81767;-53
2022/10/09 11:44:01;;;;;;;3.95;1.88;;;26.40;53.90;;;;;;7681464;22;81533;-57
2022/10/09 11:47:02;;;;;;;4.50;2.00;;;26.30;54.30;;;;;;7681446;22;80516;-59
2022/10/09 11:50:02;;;;;;;7.88;2.20;;;26.30;54.80;;;;;;7683055;22;81138;-58
2022/10/09 11:53:03;;;;;;;12.98;4.32;;;26.30;55.30;;;;;;7678335;22;80763;-59
2022/10/09 11:56:03;;;;;;;10.10;5.35;;;26.30;55.50;;;;;;7679700;22;80197;-58
2022/10/09 11:59:04;;;;;;;7.07;4.43;;;26.40;56.00;;;;;;7681468;22;80248;-59
2022/10/09 12:02:04;;;;;;;16.38;4.15;;;26.50;55.90;;;;;;7679079;22;80568;-58
2022/10/09 12:05:05;;;;;;;6.70;3.30;;;26.50;54.90;;;;;;7676679;22;80929;-57
2022/10/09 12:08:05;;;;;;;5.82;3.40;;;26.60;55.30;;;;;;7678209;22;80157;-53
2022/10/09 12:11:06;;;;;;;4.63;2.72;;;26.70;55.30;;;;;;7648370;22;81816;-57
2022/10/09 12:14:07;;;;;;;4.90;2.50;;;26.70;53.40;;;;;;7674926;22;80754;-58
2022/10/09 12:17:07;;;;;;;4.30;2.75;;;26.80;54.70;;;;;;7675993;22;80201;-59
2022/10/09 12:20:08;;;;;;;5.40;2.33;;;26.80;54.30;;;;;;7675963;22;80758;-59
2022/10/09 12:23:08;;;;;;;4.10;2.40;;;26.90;55.20;;;;;;7680973;22;80561;-58
2022/10/09 12:26:09;;;;;;;4.72;2.00;;;27.00;54.40;;;;;;7679258;22;81066;-58
2022/10/09 12:29:09;;;;;;;4.47;2.33;;;26.90;54.60;;;;;;7682452;22;79917;-60
2022/10/09 12:32:10;;;;;;;4.78;2.90;;;27.10;55.40;;;;;;7667367;22;80982;-57
2022/10/09 12:35:10;;;;;;;9.18;2.80;;;27.10;56.60;;;;;;7657064;22;80253;-56
2022/10/09 12:38:11;;;;;;;5.90;2.63;;;27.10;56.40;;;;;;7660043;22;81448;-56
2022/10/09 12:41:11;;;;;;;6.90;2.60;;;27.10;55.90;;;;;;7673199;22;81253;-57
2022/10/09 12:44:12;;;;;;;6.70;2.80;;;27.20;55.20;;;;;;7672684;22;81125;-57
2022/10/09 12:47:13;;;;;;;4.28;2.22;;;27.10;55.00;;;;;;7673266;22;80405;-58
2022/10/09 12:50:13;;;;;;;3.70;2.08;;;27.20;55.00;;;;;;7653994;22;80887;-57
2022/10/09 12:53:14;;;;;;;3.50;2.22;;;27.20;54.50;;;;;;7667319;22;80929;-58
2022/10/09 12:56:14;;;;;;;2.60;1.67;;;27.20;53.40;;;;;;7669356;22;80503;-60
2022/10/09 12:59:16;;;;;;;1.88;1.58;;;27.10;52.10;;;;;;7673341;22;81103;-59
2022/10/09 13:02:17;;;;;;;4.03;2.10;;;26.90;51.00;;;;;;7672682;22;81149;-60
2022/10/09 13:05:17;;;;;;;2.70;1.83;;;26.70;51.60;;;;;;7672817;22;80963;-61
2022/10/09 13:08:18;;;;;;;4.38;1.88;;;26.70;52.00;;;;;;7671581;22;80286;-60
2022/10/09 13:11:18;;;;;;;3.38;1.60;;;26.50;52.00;;;;;;7672454;22;80358;-60
2022/10/09 13:14:19;;;;;;;4.90;1.75;;;26.40;51.90;;;;;;7674083;22;81266;-54
2022/10/09 13:17:20;;;;;;;3.72;1.83;;;26.40;52.00;;;;;;7671311;22;80319;-48
2022/10/09 13:20:20;;;;;;;2.55;1.67;;;26.30;52.30;;;;;;7673543;22;80059;-51
2022/10/09 13:23:21;;;;;;;3.88;1.33;;;26.30;52.70;;;;;;7676410;22;80854;-51
2022/10/09 13:26:21;;;;;;;2.70;1.60;;;26.20;52.80;;;;;;7680146;22;80679;-50
2022/10/09 13:29:22;;;;;;;3.92;1.70;;;26.20;53.10;;;;;;7677825;22;80781;-58
2022/10/09 13:32:23;;;;;;;5.43;1.80;;;26.10;53.40;;;;;;7672875;22;80928;-52
2022/10/09 13:35:23;;;;;;;2.65;1.35;;;26.10;53.60;;;;;;7675313;22;81608;-47
2022/10/09 13:38:24;;;;;;;6.38;1.92;;;26.10;53.10;;;;;;7671469;22;80421;-48
2022/10/09 13:41:24;;;;;;;3.40;1.70;;;26.00;53.10;;;;;;7672066;22;80314;-52
2022/10/09 13:44:25;;;;;;;6.30;1.70;;;26.00;53.10;;;;;;7669748;22;81397;-53
2022/10/09 13:47:25;;;;;;;2.35;1.42;;;26.00;53.10;;;;;;7665207;22;80341;-50
2022/10/09 13:50:26;;;;;;;4.13;2.20;;;26.10;53.10;;;;;;7674652;22;80904;-48
2022/10/09 13:53:26;;;;;;;3.25;1.60;;;26.20;52.80;;;;;;7676222;22;80322;-52
2022/10/09 13:56:27;;;;;;;5.80;1.90;;;26.20;52.80;;;;;;7675536;22;80262;-48
2022/10/09 13:59:30;;;;;;;3.00;1.58;;;26.20;53.00;;;;;;7677961;22;80884;-48
2022/10/09 14:02:31;;;;;;;2.22;1.48;;;26.30;52.60;;;;;;7671649;22;80528;-49
2022/10/09 14:05:31;;;;;;;4.05;1.75;;;26.30;52.70;;;;;;7675664;22;81322;-51
2022/10/09 14:08:31;;;;;;;2.78;1.75;;;26.30;52.40;;;;;;7674001;22;80556;-56
2022/10/09 14:11:32;;;;;;;2.63;1.55;;;26.30;52.30;;;;;;7675409;22;82234;-55
2022/10/09 14:14:33;;;;;;;4.97;1.40;;;26.30;52.60;;;;;;7675644;22;80545;-54
2022/10/09 14:17:33;;;;;;;3.42;1.80;;;26.30;52.30;;;;;;7672520;22;80988;-55
2022/10/09 14:20:34;;;;;;;3.55;1.70;;;26.20;52.50;;;;;;7683630;22;80916;-54
2022/10/09 14:23:34;;;;;;;6.60;2.20;;;26.20;52.20;;;;;;7680869;22;81467;-53
2022/10/09 14:26:35;;;;;;;4.35;1.70;;;26.20;52.30;;;;;;7678821;22;80323;-54
2022/10/09 14:29:36;;;;;;;3.85;1.48;;;26.20;52.50;;;;;;7677319;22;80298;-58
2022/10/09 14:32:37;;;;;;;4.07;1.50;;;26.10;52.10;;;;;;7679533;22;80511;-53
2022/10/09 14:35:38;;;;;;;3.60;2.08;;;26.10;52.20;;;;;;7683549;22;80362;-55
2022/10/09 14:38:39;;;;;;;6.80;1.90;;;26.10;52.60;;;;;;7682020;22;80375;-55
2022/10/09 14:41:39;;;;;;;10.60;2.10;;;26.20;53.00;;;;;;7672890;22;80219;-55
2022/10/09 14:44:40;;;;;;;8.05;2.58;;;26.70;52.70;;;;;;7672829;22;81346;-56
2022/10/09 14:47:40;;;;;;;2.72;1.73;;;27.10;52.70;;;;;;7680562;22;80370;-49
2022/10/09 14:50:41;;;;;;;3.63;1.88;;;27.10;52.90;;;;;;7679361;22;80325;-49
2022/10/09 14:53:41;;;;;;;3.88;1.88;;;27.00;53.20;;;;;;7678538;22;80731;-49
2022/10/09 14:56:42;;;;;;;3.35;1.52;;;26.90;53.50;;;;;;7680352;22;80400;-50
2022/10/09 14:59:42;;;;;;;3.83;1.60;;;26.90;53.80;;;;;;7672400;22;80607;-53
2022/10/09 15:02:43;;;;;;;2.05;1.60;;;26.80;54.20;;;;;;7678527;22;80366;-56
2022/10/09 15:05:43;;;;;;;11.65;2.03;;;26.70;54.50;;;;;;7677979;22;80352;-58
2022/10/09 15:08:44;;;;;;;2.88;2.00;;;26.70;55.00;;;;;;7684198;22;81058;-58
2022/10/09 15:11:45;;;;;;;3.65;1.65;;;26.60;55.40;;;;;;7680291;22;80307;-54
2022/10/09 15:14:45;;;;;;;4.72;1.77;;;26.60;55.50;;;;;;7673677;22;81917;-57
2022/10/09 15:17:46;;;;;;;66.10;33.78;;;26.50;55.40;;;;;;7681936;22;80273;-56
2022/10/09 15:20:46;;;;;;;76.22;39.88;;;26.50;55.70;;;;;;7677996;22;82903;-57
2022/10/09 15:23:47;;;;;;;114.20;61.15;;;26.50;55.70;;;;;;7676755;22;83375;-55
2022/10/09 15:26:47;;;;;;;137.18;70.20;;;26.50;55.90;;;;;;7677791;22;82746;-57
2022/10/09 15:29:48;;;;;;;147.57;79.72;;;26.50;55.90;;;;;;7674694;22;84493;-58
2022/10/09 15:32:48;;;;;;;160.68;79.68;;;26.40;56.00;;;;;;7674283;22;84915;-59
2022/10/09 15:35:49;;;;;;;155.75;81.32;;;26.40;55.90;;;;;;7676082;22;82845;-58